| |
Missouri Department of Transportation

Social Media Facebook Twitter Flickr Instagram YouTube RSS

Current METAR Information for All MoDOT Locations 
AWOS Home
Current METAR for all Airports
Glossary - Disclaimer


Location Current METAR Record
Boonville METAR KVER 201620Z AUTO 30003KT 10SM CLR 30/17 A2988 RMK AO2 T03000174
Branson METAR KBBG 201620Z AUTO 00000KT 10SM CLR 30/22 A2993 RMK AO2 TSNO
Branson West METAR KFWB 201615Z AUTO 12004KT 10SM CLR 30/23 A2994 RMK AO2
Camdenton METAR KOZS 201620Z AUTO 00000KT 10SM CLR 30/18 A2991 RMK AO2
Clinton METAR KGLY 201545Z AUTO 00000KT 8SM CLR 30/22 A2990 RMK AO2
Hannibal METAR KHAE 201625Z AUTO 30014G21KT 10SM CLR 30/13 A2983 RMK AO2
Harrisonville METAR KLRY 201625Z AUTO 09004KT 10SM CLR 31/21 A2992 RMK AO2
Lebanon METAR KLBO 201625Z AUTO 34004KT 10SM CLR 31/20 A2993 RMK AO2
Malden METAR KMAW 191625Z AUTO 22010KT 10SM CLR 30/23 A2990 RMK AO2
Marshall METAR KMHL 201625Z AUTO 00000KT 10SM CLR 28/19 A2989 RMK AO2
Maryville METAR KEVU 201620Z AUTO 35008KT 10SM CLR 28/05 A2990 RMK AO2
Mexico METAR KMYJ 201625Z AUTO 25011G14KT 5SM HZ CLR 29/17 A2987 RMK AO2
Moberly METAR KMBY 201627Z AUTO 28011G15KT 10SM CLR A2987 RMK AO2
Mosby METAR KGPH 201633Z AUTO 36008KT 10SM CLR 31/13 A2988 RMK AO2
Sikeston METAR KSIK 201645Z AUTO 17005KT 10SM CLR 31/24 A2987 RMK AO2
Warrensburg METAR KRCM 191805Z AUTO 04017G24KT 10SM TS SCT020 SCT030 SCT035 28/22 A2990 RMK AO2 LTG DSNT N THRU E
Warsaw METAR KRAW 170155Z AUTO 00000KT 10SM CLR A2999 RMK AO2
Washington METAR KFYG 201555Z AUTO 28009KT 250V310 10SM CLR 31/19 A2984 RMK AO2
About Us
How Do I...
Contact Us
Missouri Department of Transportation
Central Office
105 W. Capitol Avenue
Jefferson City, MO 65102
1-888-ASK-MODOT (275-6636)
1-866-831-6277 (Motor Carrier Services)
Driver's License Offices
horz_bar
| | |
Missouri State Government
© 2013 Missouri Department of Transportation. All Rights Reserved.   Privacy Policy.
 
 
 
 
RSS FeedYoutubeBlogFlickrTwitter Facebook